Time;durP1;ratioP1;P1;durP2;ratioP2;P2;SDS_P1;SDS_P2;PMS_P1;PMS_P2;Temp;Humidity;BMP_temperature;BMP_pressure;BME280_temperature;BME280_humidity;BME280_pressure;Samples;Min_cycle;Max_cycle;Signal;HPM_P1;HPM_P2
2023/06/26 00:00:52;;;;;;;1.02;0.38;;;17.00;74.70;;;;;;5017781;28;20205;-91
2023/06/26 00:03:26;;;;;;;2.88;0.43;;;17.00;73.80;;;;;;5016044;28;20265;-91
2023/06/26 00:06:00;;;;;;;3.17;0.73;;;17.10;72.70;;;;;;5024573;28;20216;-92
2023/06/26 00:08:32;;;;;;;1.20;0.40;;;17.10;71.40;;;;;;5035972;28;20202;-91
2023/06/26 00:11:04;;;;;;;1.35;0.30;;;17.10;71.20;;;;;;5036076;28;20660;-91
2023/06/26 00:13:37;;;;;;;1.13;0.38;;;17.20;70.80;;;;;;5022557;28;20201;-92
2023/06/26 00:16:07;;;;;;;2.08;0.40;;;17.30;71.20;;;;;;5016422;28;20577;-92
2023/06/26 00:18:42;;;;;;;1.52;0.50;;;17.40;71.40;;;;;;5015639;28;20204;-92
2023/06/26 00:21:14;;;;;;;2.33;0.60;;;17.50;72.30;;;;;;5015599;28;20198;-91
2023/06/26 00:23:45;;;;;;;0.75;0.40;;;17.50;69.20;;;;;;4983575;28;20245;-91
2023/06/26 00:26:17;;;;;;;1.88;0.43;;;17.60;69.10;;;;;;4996156;28;20662;-91
2023/06/26 00:28:49;;;;;;;1.17;0.90;;;17.60;69.10;;;;;;4996797;28;20281;-90
2023/06/26 00:31:20;;;;;;;1.83;0.50;;;17.60;68.20;;;;;;5001206;28;20631;-90
2023/06/26 00:33:55;;;;;;;0.93;0.40;;;17.70;68.80;;;;;;4999116;28;20229;-92
2023/06/26 00:36:26;;;;;;;1.35;0.43;;;17.70;68.50;;;;;;5008171;28;20194;-89
2023/06/26 00:38:58;;;;;;;2.95;0.57;;;17.70;69.00;;;;;;5025162;28;20209;-90
2023/06/26 00:41:30;;;;;;;2.22;0.60;;;17.80;66.40;;;;;;4977448;28;20660;-89
2023/06/26 00:44:01;;;;;;;1.13;0.30;;;17.90;67.30;;;;;;4976745;28;20724;-89
2023/06/26 00:46:38;;;;;;;1.13;0.40;;;18.00;68.00;;;;;;4987050;28;20186;-90
2023/06/26 00:49:15;;;;;;;1.02;0.50;;;18.20;68.20;;;;;;4977524;28;20215;-90
2023/06/26 00:51:48;;;;;;;2.42;0.60;;;18.20;67.60;;;;;;4976621;28;20675;-89
2023/06/26 00:54:20;;;;;;;2.83;0.60;;;18.20;65.90;;;;;;4976593;28;20584;-89
2023/06/26 00:56:51;;;;;;;3.55;0.52;;;18.20;65.00;;;;;;4998570;28;20696;-88
2023/06/26 00:59:23;;;;;;;3.28;0.60;;;18.30;66.60;;;;;;4995671;28;20211;-91
2023/06/26 01:01:55;;;;;;;0.98;0.30;;;18.30;66.00;;;;;;4997482;28;20570;-89
2023/06/26 01:04:32;;;;;;;2.67;0.40;;;18.40;66.20;;;;;;4996422;28;20661;-90
2023/06/26 01:07:04;;;;;;;1.58;0.50;;;18.50;66.20;;;;;;4996569;28;20241;-89
2023/06/26 01:09:38;;;;;;;0.60;0.45;;;18.50;64.90;;;;;;5006097;28;20221;-84
2023/06/26 01:12:11;;;;;;;0.85;0.40;;;18.50;65.30;;;;;;5001093;28;20221;-88
2023/06/26 01:14:43;;;;;;;2.05;0.40;;;18.50;64.50;;;;;;4980971;28;20217;-90
2023/06/26 01:17:15;;;;;;;0.65;0.40;;;18.60;64.90;;;;;;5006172;28;20221;-85
2023/06/26 01:19:56;;;;;;;2.75;0.60;;;18.60;63.70;;;;;;5018828;28;20182;-82
2023/06/26 01:22:44;;;;;;;3.10;0.50;;;18.60;63.10;;;;;;5029858;28;20209;-82
2023/06/26 01:25:25;;;;;;;0.65;0.40;;;18.70;63.20;;;;;;5035943;28;20229;-89
2023/06/26 01:28:01;;;;;;;2.97;0.50;;;18.90;63.60;;;;;;5036019;28;20189;-88
2023/06/26 01:30:35;;;;;;;3.03;0.50;;;19.00;63.20;;;;;;5034479;28;20216;-88
2023/06/26 01:33:08;;;;;;;7.60;0.40;;;19.00;62.90;;;;;;5037956;28;20277;-89
2023/06/26 01:35:44;;;;;;;1.58;0.50;;;19.00;62.50;;;;;;5036458;28;20269;-88
2023/06/26 01:38:23;;;;;;;1.58;0.60;;;19.00;61.60;;;;;;5036092;28;20237;-90
2023/06/26 01:40:58;;;;;;;2.65;0.82;;;19.10;60.70;;;;;;5025941;28;20212;-89
2023/06/26 01:43:42;;;;;;;1.83;0.50;;;19.10;60.80;;;;;;5012404;28;20441;-90
2023/06/26 01:46:20;;;;;;;3.42;0.40;;;19.10;61.50;;;;;;5005613;28;20577;-89
2023/06/26 01:48:57;;;;;;;2.97;0.57;;;19.10;60.70;;;;;;5021887;28;20286;-88
2023/06/26 01:51:34;;;;;;;1.67;0.38;;;19.10;60.70;;;;;;5034697;28;20205;-88
2023/06/26 01:54:09;;;;;;;2.58;0.55;;;19.10;61.10;;;;;;5029668;28;20229;-88
2023/06/26 01:56:42;;;;;;;1.90;0.60;;;19.20;61.00;;;;;;5025827;28;20216;-87
2023/06/26 01:59:17;;;;;;;2.83;0.60;;;19.20;61.50;;;;;;5018473;28;20205;-87
2023/06/26 02:01:49;;;;;;;2.83;0.60;;;19.20;60.80;;;;;;5017637;28;20228;-87
2023/06/26 02:04:20;;;;;;;1.88;0.40;;;19.10;60.50;;;;;;5015499;28;20722;-86
2023/06/26 02:06:51;;;;;;;3.63;0.60;;;19.20;61.40;;;;;;5015927;28;20209;-86
2023/06/26 02:09:22;;;;;;;2.78;0.43;;;19.30;61.60;;;;;;5015014;28;20204;-86
2023/06/26 02:11:53;;;;;;;4.03;0.52;;;19.40;61.60;;;;;;5014511;28;20208;-87
2023/06/26 02:14:27;;;;;;;1.00;0.40;;;19.40;61.30;;;;;;5015252;28;20202;-87
2023/06/26 02:17:00;;;;;;;2.58;0.50;;;19.50;61.00;;;;;;5014454;28;20217;-88
2023/06/26 02:19:31;;;;;;;3.70;0.50;;;19.50;59.80;;;;;;5018584;28;20210;-87
2023/06/26 02:22:03;;;;;;;1.75;0.60;;;19.50;60.50;;;;;;5017336;28;20236;-88
2023/06/26 02:24:35;;;;;;;3.17;0.57;;;19.60;60.40;;;;;;5015327;28;20239;-88
2023/06/26 02:27:07;;;;;;;1.88;0.50;;;19.70;59.40;;;;;;5015453;28;20194;-87
2023/06/26 02:29:41;;;;;;;3.35;0.63;;;19.60;59.00;;;;;;5013911;28;20673;-88
2023/06/26 02:32:13;;;;;;;2.08;0.60;;;19.60;58.80;;;;;;5014525;28;20198;-84
2023/06/26 02:34:43;;;;;;;1.98;0.40;;;19.60;59.00;;;;;;5024969;28;20205;-86
2023/06/26 02:37:16;;;;;;;1.92;0.47;;;19.60;59.30;;;;;;5017784;28;20202;-85
2023/06/26 02:39:46;;;;;;;1.38;0.57;;;19.60;58.70;;;;;;5008783;28;20285;-86
2023/06/26 02:42:17;;;;;;;1.80;0.60;;;19.70;58.60;;;;;;4993688;28;20234;-86
2023/06/26 02:44:51;;;;;;;2.80;0.70;;;19.70;58.40;;;;;;4993783;28;20226;-87
2023/06/26 02:47:26;;;;;;;1.98;0.35;;;19.70;58.40;;;;;;5005534;28;20205;-91
2023/06/26 02:50:00;;;;;;;3.45;0.70;;;19.70;59.30;;;;;;5019051;28;20201;-88
2023/06/26 02:52:33;;;;;;;2.05;0.52;;;19.80;58.60;;;;;;5014790;28;20260;-88
2023/06/26 02:55:04;;;;;;;4.93;0.88;;;19.90;58.70;;;;;;5015097;28;20224;-91
2023/06/26 02:57:38;;;;;;;2.25;0.70;;;19.80;57.90;;;;;;5033727;28;20194;-90
2023/06/26 03:00:15;;;;;;;1.65;0.70;;;19.90;58.60;;;;;;5032441;28;20221;-90
2023/06/26 03:02:46;;;;;;;2.83;0.73;;;19.90;57.40;;;;;;5033729;28;20224;-91
2023/06/26 03:05:19;;;;;;;2.47;0.70;;;19.90;57.70;;;;;;5027257;28;20715;-89
2023/06/26 03:07:51;;;;;;;2.58;0.60;;;20.10;58.20;;;;;;5018489;28;20262;-88
2023/06/26 03:10:23;;;;;;;3.17;0.40;;;20.10;58.00;;;;;;5019426;28;20728;-90
2023/06/26 03:12:55;;;;;;;3.28;0.60;;;20.20;58.30;;;;;;5013791;28;20202;-88
2023/06/26 03:15:29;;;;;;;1.88;0.57;;;20.20;56.90;;;;;;5014025;28;20206;-88
2023/06/26 03:18:01;;;;;;;3.53;1.10;;;20.00;57.90;;;;;;5013440;28;20202;-87
2023/06/26 03:20:37;;;;;;;7.22;0.50;;;20.00;57.90;;;;;;5014322;28;20209;-88
2023/06/26 03:23:08;;;;;;;3.13;0.70;;;20.10;57.60;;;;;;5014161;28;20237;-87
2023/06/26 03:25:40;;;;;;;1.67;0.70;;;20.20;58.60;;;;;;5009111;28;20228;-89
2023/06/26 03:28:13;;;;;;;3.03;0.52;;;20.10;56.90;;;;;;5014845;28;20209;-88
2023/06/26 03:30:48;;;;;;;3.78;0.90;;;20.10;56.00;;;;;;5029930;28;20683;-88
2023/06/26 03:33:19;;;;;;;2.63;0.52;;;20.00;56.80;;;;;;5033779;28;20279;-88
2023/06/26 03:35:50;;;;;;;1.75;0.80;;;20.10;57.10;;;;;;5034435;28;20209;-92
2023/06/26 03:38:20;;;;;;;1.00;0.50;;;20.10;56.50;;;;;;5020992;28;20692;-90
2023/06/26 03:40:52;;;;;;;1.20;0.60;;;20.20;56.70;;;;;;5014032;28;20216;-90
2023/06/26 03:43:24;;;;;;;2.33;0.40;;;20.20;56.30;;;;;;4998344;28;20721;-90
2023/06/26 03:45:59;;;;;;;1.40;0.35;;;20.30;55.60;;;;;;4995348;28;20234;-88
2023/06/26 03:48:31;;;;;;;2.65;0.60;;;20.10;55.00;;;;;;5033590;28;20675;-90
2023/06/26 03:51:03;;;;;;;4.03;0.60;;;20.10;55.80;;;;;;5033156;28;20664;-90
2023/06/26 03:53:34;;;;;;;1.35;0.45;;;20.10;56.00;;;;;;5034082;28;20205;-91
2023/06/26 03:56:05;;;;;;;1.88;0.60;;;19.90;55.90;;;;;;5029158;28;20208;-90
2023/06/26 03:58:38;;;;;;;1.80;0.40;;;19.80;55.70;;;;;;5014328;28;20202;-89
2023/06/26 04:01:14;;;;;;;6.50;0.55;;;19.70;55.80;;;;;;5011947;28;20206;-88
2023/06/26 04:03:46;;;;;;;0.95;0.50;;;19.70;55.60;;;;;;5015348;28;20213;-88
2023/06/26 04:06:18;;;;;;;3.65;0.60;;;19.50;55.90;;;;;;5015486;28;20212;-87
2023/06/26 04:08:49;;;;;;;0.22;0.20;;;19.60;56.30;;;;;;5028704;28;20201;-89
2023/06/26 04:11:21;;;;;;;3.53;0.50;;;19.60;55.90;;;;;;5050696;28;20209;-89
2023/06/26 04:13:53;;;;;;;5.40;0.65;;;19.50;55.50;;;;;;5045475;28;20284;-90
2023/06/26 04:16:27;;;;;;;1.75;0.50;;;19.50;56.10;;;;;;5039092;28;20662;-90
2023/06/26 04:19:00;;;;;;;2.42;0.47;;;19.40;56.40;;;;;;5036875;28;20201;-90
2023/06/26 04:21:30;;;;;;;1.38;0.40;;;19.50;57.00;;;;;;5024883;28;20240;-88
2023/06/26 04:24:06;;;;;;;5.15;0.70;;;19.40;56.20;;;;;;5019607;28;20213;-88
2023/06/26 04:26:40;;;;;;;5.15;0.70;;;19.50;56.50;;;;;;5005751;28;20191;-88
2023/06/26 04:29:13;;;;;;;1.45;0.50;;;19.50;56.00;;;;;;4998518;28;20203;-88
2023/06/26 04:31:49;;;;;;;3.40;0.50;;;19.60;55.70;;;;;;4999049;28;20222;-91
2023/06/26 04:34:20;;;;;;;1.38;0.60;;;19.50;55.60;;;;;;5002250;28;20203;-89
2023/06/26 04:36:51;;;;;;;3.30;0.90;;;19.40;55.30;;;;;;4998982;28;20722;-88
2023/06/26 04:39:23;;;;;;;1.10;0.40;;;19.50;55.50;;;;;;5014621;28;20201;-88
2023/06/26 04:41:55;;;;;;;1.70;0.50;;;19.40;55.90;;;;;;5008532;28;20292;-87
2023/06/26 04:44:29;;;;;;;3.42;0.50;;;19.50;55.10;;;;;;5037601;28;20228;-88
2023/06/26 04:47:02;;;;;;;3.25;0.90;;;19.50;55.00;;;;;;5054901;28;20257;-87
2023/06/26 04:49:33;;;;;;;0.75;0.30;;;19.40;55.40;;;;;;5017461;28;20289;-91
2023/06/26 04:52:07;;;;;;;0.57;0.30;;;19.40;55.30;;;;;;5012564;28;20202;-90
2023/06/26 04:54:41;;;;;;;1.05;0.30;;;19.40;55.30;;;;;;5019509;28;20272;-90
2023/06/26 04:57:12;;;;;;;1.58;0.40;;;19.30;55.10;;;;;;5031421;28;20584;-88
2023/06/26 04:59:44;;;;;;;1.90;0.60;;;19.30;55.80;;;;;;5024188;28;20218;-90
2023/06/26 05:02:18;;;;;;;1.27;0.43;;;19.30;55.80;;;;;;5038038;28;20214;-90
2023/06/26 05:04:55;;;;;;;1.10;0.40;;;19.30;55.90;;;;;;5029503;28;20264;-89
2023/06/26 05:07:26;;;;;;;1.73;0.47;;;19.30;56.10;;;;;;5019032;28;20198;-89
2023/06/26 05:10:00;;;;;;;3.90;0.50;;;19.30;56.50;;;;;;5017194;28;20197;-89
2023/06/26 05:12:33;;;;;;;2.50;0.45;;;19.20;56.20;;;;;;5018373;28;20212;-89
2023/06/26 05:15:05;;;;;;;2.88;0.57;;;19.20;56.40;;;;;;5018239;28;20254;-89
2023/06/26 05:17:42;;;;;;;1.42;0.50;;;19.20;56.50;;;;;;5017592;28;20664;-89
2023/06/26 05:20:14;;;;;;;1.58;0.32;;;19.30;57.00;;;;;;5021712;28;20197;-90
2023/06/26 05:22:46;;;;;;;0.90;0.43;;;19.20;56.80;;;;;;5020482;28;20236;-89
2023/06/26 05:25:20;;;;;;;1.92;0.38;;;19.00;56.40;;;;;;5019770;28;20232;-88
2023/06/26 05:27:53;;;;;;;1.42;0.45;;;19.00;56.00;;;;;;5006647;28;20564;-90
2023/06/26 05:30:25;;;;;;;1.77;0.40;;;18.90;56.50;;;;;;5020435;28;20653;-87
2023/06/26 05:33:03;;;;;;;1.58;0.40;;;18.90;56.50;;;;;;5017504;28;20618;-88
2023/06/26 05:35:36;;;;;;;2.78;0.45;;;18.80;56.80;;;;;;5017596;28;20297;-89
2023/06/26 05:38:08;;;;;;;4.85;0.60;;;18.70;57.20;;;;;;5019945;28;20206;-87
2023/06/26 05:40:40;;;;;;;1.42;0.40;;;18.70;57.20;;;;;;5017994;28;20565;-88
2023/06/26 05:43:12;;;;;;;1.48;0.35;;;18.70;57.20;;;;;;5017307;28;20191;-90
2023/06/26 05:45:45;;;;;;;1.15;0.32;;;18.60;57.60;;;;;;5015828;28;20297;-89
2023/06/26 05:48:19;;;;;;;4.03;0.50;;;18.50;56.90;;;;;;5017413;28;20201;-89
2023/06/26 05:50:51;;;;;;;3.30;0.47;;;18.30;57.60;;;;;;5019273;28;20190;-91
2023/06/26 05:53:24;;;;;;;1.88;0.50;;;18.30;57.10;;;;;;5021710;28;20197;-91
2023/06/26 05:55:56;;;;;;;0.43;0.30;;;18.30;57.60;;;;;;5035506;28;20205;-89
2023/06/26 05:58:31;;;;;;;1.55;0.43;;;18.30;57.70;;;;;;5016754;28;20205;-90
2023/06/26 06:01:02;;;;;;;3.78;0.70;;;18.20;57.80;;;;;;5015036;28;20217;-92
2023/06/26 06:03:36;;;;;;;2.40;0.40;;;18.10;57.80;;;;;;5020241;28;20566;-90
2023/06/26 06:06:08;;;;;;;2.58;0.50;;;18.30;57.60;;;;;;5015126;28;20240;-92
2023/06/26 06:08:44;;;;;;;2.22;0.65;;;18.30;57.40;;;;;;5014726;28;20198;-90
2023/06/26 06:11:35;;;;;;;1.65;0.50;;;18.20;57.30;;;;;;5015387;28;20201;-90
2023/06/26 06:14:07;;;;;;;1.40;0.40;;;18.10;57.20;;;;;;5018644;28;20565;-89
2023/06/26 06:16:39;;;;;;;2.67;0.40;;;18.10;57.40;;;;;;5024121;28;20269;-87
2023/06/26 06:19:13;;;;;;;1.55;0.63;;;18.20;57.40;;;;;;5019540;28;20202;-91
2023/06/26 06:21:44;;;;;;;2.20;0.52;;;18.20;57.20;;;;;;5018036;28;20268;-90
2023/06/26 06:24:16;;;;;;;2.42;0.47;;;18.20;57.60;;;;;;5033521;28;20190;-89
2023/06/26 06:26:47;;;;;;;0.68;0.50;;;18.10;57.70;;;;;;5023331;28;20252;-90
2023/06/26 06:29:19;;;;;;;1.10;0.47;;;18.20;57.50;;;;;;5015250;28;20198;-91
2023/06/26 06:31:51;;;;;;;1.75;0.50;;;18.10;57.40;;;;;;5015230;28;20210;-91
2023/06/26 06:34:28;;;;;;;1.75;0.55;;;17.90;57.30;;;;;;5014782;28;20293;-89
2023/06/26 06:36:59;;;;;;;0.82;0.30;;;17.90;57.00;;;;;;5015608;28;20587;-90
2023/06/26 06:39:31;;;;;;;1.83;0.43;;;17.80;57.00;;;;;;5015654;28;20201;-91
2023/06/26 06:42:03;;;;;;;2.08;0.60;;;17.80;57.40;;;;;;5015293;28;20202;-91
2023/06/26 06:44:34;;;;;;;2.50;0.70;;;17.70;57.10;;;;;;5015965;28;20202;-89
2023/06/26 06:47:06;;;;;;;2.22;0.85;;;17.70;57.50;;;;;;5016126;28;20206;-89
2023/06/26 06:49:41;;;;;;;5.28;0.50;;;17.70;57.40;;;;;;5015160;28;20198;-91
2023/06/26 06:52:12;;;;;;;4.30;0.70;;;17.60;57.70;;;;;;5015041;28;20566;-88
2023/06/26 06:54:58;;;;;;;1.55;0.50;;;17.50;57.50;;;;;;5016199;28;20299;-92
2023/06/26 06:57:30;;;;;;;1.58;0.40;;;17.50;57.70;;;;;;5013435;28;20245;-89
2023/06/26 07:00:00;;;;;;;1.08;0.50;;;17.50;57.70;;;;;;5012906;28;20204;-91
2023/06/26 07:02:32;;;;;;;2.20;0.50;;;17.60;57.50;;;;;;5013202;28;20222;-90
2023/06/26 07:05:06;;;;;;;1.77;0.60;;;17.50;57.70;;;;;;5012298;28;20602;-89
2023/06/26 07:07:38;;;;;;;2.50;0.60;;;17.40;57.90;;;;;;5015365;28;20201;-90
2023/06/26 07:10:11;;;;;;;2.95;0.70;;;17.30;58.10;;;;;;5013435;28;20618;-90
2023/06/26 07:12:43;;;;;;;1.40;0.82;;;17.40;58.30;;;;;;5015998;28;20210;-89
2023/06/26 07:15:16;;;;;;;1.80;0.60;;;17.40;58.30;;;;;;5012370;28;20198;-90
2023/06/26 07:17:48;;;;;;;1.33;0.68;;;17.30;58.30;;;;;;5013125;28;20198;-90
2023/06/26 07:20:23;;;;;;;3.28;0.80;;;17.30;58.60;;;;;;5012419;28;20198;-88
2023/06/26 07:22:54;;;;;;;1.33;0.60;;;17.40;58.50;;;;;;5012368;28;20229;-88
2023/06/26 07:25:25;;;;;;;8.20;3.05;;;17.30;58.80;;;;;;5022186;28;20236;-85
2023/06/26 07:27:56;;;;;;;1.92;0.70;;;17.30;58.70;;;;;;5025141;28;20204;-90
2023/06/26 07:30:28;;;;;;;2.10;0.70;;;17.30;58.40;;;;;;5010854;28;20202;-89
2023/06/26 07:32:59;;;;;;;2.50;1.00;;;17.30;58.20;;;;;;5012930;28;20186;-89
2023/06/26 07:35:33;;;;;;;1.40;0.70;;;17.30;58.50;;;;;;5012314;28;20208;-89
2023/06/26 07:38:10;;;;;;;2.83;0.50;;;17.20;58.70;;;;;;5013315;28;20201;-88
2023/06/26 07:40:43;;;;;;;2.35;1.00;;;17.20;59.10;;;;;;5014325;28;20588;-88
2023/06/26 07:43:15;;;;;;;1.02;0.70;;;17.20;59.10;;;;;;5011925;28;20202;-91
2023/06/26 07:45:48;;;;;;;2.50;0.80;;;17.20;59.40;;;;;;5011850;28;20226;-89
2023/06/26 07:48:21;;;;;;;3.45;0.75;;;17.20;59.90;;;;;;5011952;28;20198;-90
2023/06/26 07:50:55;;;;;;;3.42;1.00;;;17.10;60.00;;;;;;5017360;28;20259;-91
2023/06/26 07:53:28;;;;;;;1.45;0.80;;;17.10;60.80;;;;;;5018662;28;20284;-91
2023/06/26 07:56:00;;;;;;;3.20;0.93;;;17.10;60.60;;;;;;5018705;28;20190;-90
2023/06/26 07:58:33;;;;;;;3.20;0.80;;;17.10;60.40;;;;;;5017183;28;20668;-89
2023/06/26 08:01:06;;;;;;;2.08;0.90;;;17.00;60.80;;;;;;5019914;28;20232;-90
2023/06/26 08:03:38;;;;;;;2.15;0.80;;;17.00;60.80;;;;;;5010284;28;20202;-90
2023/06/26 08:06:13;;;;;;;3.92;1.50;;;17.00;60.20;;;;;;5020269;28;20226;-91
2023/06/26 08:08:44;;;;;;;2.47;1.80;;;17.00;60.70;;;;;;5033486;28;20186;-89
2023/06/26 08:11:15;;;;;;;4.38;2.60;;;17.00;61.10;;;;;;5026652;28;20216;-89
2023/06/26 08:13:46;;;;;;;4.15;1.10;;;17.00;59.90;;;;;;5037096;28;20668;-91
2023/06/26 08:16:18;;;;;;;2.75;0.80;;;16.90;59.90;;;;;;5038019;28;20288;-90
2023/06/26 08:18:53;;;;;;;1.65;0.90;;;16.80;60.50;;;;;;5026737;28;20673;-90
2023/06/26 08:21:27;;;;;;;1.40;0.82;;;16.90;60.80;;;;;;5018630;28;20665;-92
2023/06/26 08:24:02;;;;;;;2.40;0.82;;;16.80;61.10;;;;;;5018232;28;20277;-91
2023/06/26 08:26:36;;;;;;;0.73;0.55;;;16.90;61.60;;;;;;5022231;28;20297;-91
2023/06/26 08:29:12;;;;;;;3.40;0.90;;;16.90;61.10;;;;;;5020190;28;20277;-92
2023/06/26 08:31:45;;;;;;;1.77;1.10;;;16.90;60.40;;;;;;5018177;28;20209;-90
2023/06/26 08:34:17;;;;;;;3.63;0.77;;;16.80;60.40;;;;;;5018405;28;20209;-91
2023/06/26 08:36:50;;;;;;;3.05;1.23;;;16.80;60.80;;;;;;5054242;28;20216;-90
2023/06/26 08:39:22;;;;;;;3.05;1.40;;;16.70;60.70;;;;;;5059176;28;20197;-90
2023/06/26 08:41:53;;;;;;;2.83;1.33;;;16.70;60.80;;;;;;5038789;28;20233;-89
2023/06/26 08:44:24;;;;;;;3.30;1.20;;;16.70;60.70;;;;;;5025674;28;20281;-88
2023/06/26 08:46:57;;;;;;;2.45;1.10;;;16.70;60.80;;;;;;5029583;28;20221;-91
2023/06/26 08:49:33;;;;;;;3.03;1.10;;;16.60;61.20;;;;;;5008560;28;20206;-90
2023/06/26 08:52:13;;;;;;;2.42;0.80;;;16.60;61.10;;;;;;5016454;28;20201;-90
2023/06/26 08:54:52;;;;;;;2.53;1.08;;;16.60;61.30;;;;;;4995849;28;20211;-90
2023/06/26 08:57:28;;;;;;;1.75;1.00;;;16.50;61.50;;;;;;5036107;28;20258;-90
2023/06/26 08:59:59;;;;;;;2.00;1.02;;;16.50;61.70;;;;;;5035647;28;20303;-90
2023/06/26 09:02:31;;;;;;;4.07;1.20;;;16.50;61.90;;;;;;5037672;28;20214;-90
2023/06/26 09:05:05;;;;;;;2.88;1.23;;;16.50;62.10;;;;;;5025427;28;20233;-90
2023/06/26 09:07:38;;;;;;;2.08;1.05;;;16.50;62.10;;;;;;5016545;28;20289;-89
2023/06/26 09:10:16;;;;;;;2.72;1.10;;;16.50;62.20;;;;;;5024824;28;20197;-90
2023/06/26 09:12:50;;;;;;;2.47;1.00;;;16.50;62.80;;;;;;5037268;28;20288;-87
2023/06/26 09:15:24;;;;;;;1.92;1.05;;;16.50;62.40;;;;;;5036725;28;20193;-90
2023/06/26 09:17:59;;;;;;;2.65;1.05;;;16.40;62.40;;;;;;5037982;28;20197;-92
2023/06/26 09:20:32;;;;;;;3.42;1.02;;;16.30;62.60;;;;;;5030686;28;20214;-91
2023/06/26 09:23:07;;;;;;;2.30;1.10;;;16.30;62.60;;;;;;5026957;28;20230;-92
2023/06/26 09:28:16;;;;;;;1.77;0.80;;;16.30;62.90;;;;;;5039729;28;20571;-93
2023/06/26 09:30:51;;;;;;;1.52;0.90;;;16.20;63.20;;;;;;5041763;28;20560;-92
2023/06/26 09:33:29;;;;;;;2.58;0.93;;;16.30;63.70;;;;;;5041166;28;20185;-93
2023/06/26 09:36:03;;;;;;;2.20;0.88;;;16.30;63.80;;;;;;5037301;28;20201;-89
2023/06/26 09:38:53;;;;;;;1.92;0.85;;;16.30;64.10;;;;;;5019171;28;20212;-91
2023/06/26 09:41:28;;;;;;;2.08;0.90;;;16.30;64.00;;;;;;5022929;28;20281;-90
2023/06/26 09:44:07;;;;;;;4.15;0.80;;;16.20;64.30;;;;;;5016236;28;20213;-91
2023/06/26 09:46:48;;;;;;;1.67;0.88;;;16.20;64.70;;;;;;5037467;28;20235;-90
2023/06/26 09:49:22;;;;;;;1.17;0.77;;;16.20;65.20;;;;;;5019499;28;20198;-92
2023/06/26 09:52:00;;;;;;;1.70;0.80;;;16.20;65.20;;;;;;5018231;28;20588;-89
2023/06/26 09:54:36;;;;;;;2.15;0.82;;;16.20;65.40;;;;;;5020368;28;20577;-90
2023/06/26 09:57:27;;;;;;;1.75;0.70;;;16.10;65.70;;;;;;4997598;28;20658;-89
2023/06/26 10:00:01;;;;;;;1.52;1.02;;;16.10;66.20;;;;;;5003445;28;20258;-90
2023/06/26 10:02:32;;;;;;;3.85;1.02;;;16.10;66.60;;;;;;5014768;28;20219;-90
2023/06/26 10:05:04;;;;;;;2.83;1.10;;;16.10;66.60;;;;;;5006039;28;20221;-88
2023/06/26 10:07:38;;;;;;;2.65;0.98;;;16.10;66.70;;;;;;5005727;28;20222;-88
2023/06/26 10:10:16;;;;;;;2.47;1.10;;;16.10;67.30;;;;;;5017065;28;20202;-89
2023/06/26 10:12:52;;;;;;;1.08;0.60;;;16.10;67.50;;;;;;5001621;28;20212;-89
2023/06/26 10:15:24;;;;;;;2.13;0.77;;;16.10;68.10;;;;;;4997997;28;20198;-88
2023/06/26 10:17:58;;;;;;;2.15;0.80;;;16.10;68.70;;;;;;5011773;28;20212;-90
2023/06/26 10:20:29;;;;;;;1.30;0.82;;;16.20;68.30;;;;;;5020676;28;20189;-91
2023/06/26 10:23:07;;;;;;;3.60;0.85;;;16.10;68.40;;;;;;5015007;28;20261;-92
2023/06/26 10:25:48;;;;;;;2.75;1.10;;;16.20;68.70;;;;;;5014092;28;20209;-91
2023/06/26 10:28:22;;;;;;;3.13;1.20;;;16.10;68.80;;;;;;5014451;28;20212;-92
2023/06/26 10:30:57;;;;;;;1.55;0.90;;;16.10;69.20;;;;;;5014907;28;20198;-92
2023/06/26 10:33:29;;;;;;;3.45;1.10;;;16.10;69.20;;;;;;5013054;28;20202;-89
2023/06/26 10:36:18;;;;;;;1.98;0.90;;;16.20;70.20;;;;;;5014506;28;20228;-90
2023/06/26 10:39:00;;;;;;;2.58;0.80;;;16.20;70.00;;;;;;5014758;28;20202;-90
2023/06/26 10:41:42;;;;;;;2.55;0.70;;;16.20;70.70;;;;;;5014597;28;20213;-91
2023/06/26 10:44:20;;;;;;;1.13;0.68;;;16.20;71.50;;;;;;5015563;28;20205;-90
2023/06/26 10:46:55;;;;;;;1.95;0.95;;;16.30;72.60;;;;;;5005902;28;20290;-91
2023/06/26 10:49:31;;;;;;;2.35;1.20;;;16.20;73.10;;;;;;5015191;28;20227;-91
2023/06/26 10:52:05;;;;;;;2.65;0.80;;;16.20;72.10;;;;;;5013911;28;20250;-92
2023/06/26 10:54:36;;;;;;;2.25;0.60;;;16.20;71.10;;;;;;5012819;28;20201;-93
2023/06/26 10:57:12;;;;;;;1.60;0.85;;;16.10;71.20;;;;;;5013211;28;20212;-92
2023/06/26 10:59:44;;;;;;;2.67;1.08;;;16.10;71.70;;;;;;5035501;28;20281;-92
2023/06/26 11:02:15;;;;;;;5.47;1.10;;;16.10;72.20;;;;;;5020849;28;20302;-92
2023/06/26 11:04:51;;;;;;;2.60;0.90;;;16.10;72.10;;;;;;5001391;28;20209;-93
2023/06/26 11:07:24;;;;;;;1.52;1.00;;;16.10;72.20;;;;;;4995087;28;20230;-93
2023/06/26 11:10:04;;;;;;;3.17;1.13;;;16.10;72.90;;;;;;5010073;28;20219;-93
2023/06/26 11:12:48;;;;;;;2.15;0.80;;;16.10;72.60;;;;;;5013121;28;20209;-93
2023/06/26 11:15:21;;;;;;;2.30;1.10;;;16.10;73.10;;;;;;5012430;28;20198;-93
2023/06/26 11:17:54;;;;;;;2.25;1.00;;;16.00;73.30;;;;;;5013015;28;20204;-93
2023/06/26 11:20:25;;;;;;;2.05;1.02;;;15.90;73.80;;;;;;5011487;28;20197;-92
2023/06/26 11:22:58;;;;;;;2.03;0.63;;;15.90;74.60;;;;;;5012852;28;20390;-91
2023/06/26 11:25:29;;;;;;;2.05;1.05;;;15.80;75.50;;;;;;5017246;28;20201;-92
2023/06/26 11:28:05;;;;;;;2.05;0.90;;;15.80;76.40;;;;;;5016961;28;20704;-92
2023/06/26 11:30:37;;;;;;;1.60;0.70;;;15.80;77.90;;;;;;5017141;28;20576;-93
2023/06/26 11:33:13;;;;;;;1.92;1.00;;;15.80;78.80;;;;;;5017327;28;20201;-93
2023/06/26 11:35:45;;;;;;;2.42;1.23;;;15.80;80.10;;;;;;5019020;28;20533;-93
2023/06/26 11:38:17;;;;;;;2.28;1.00;;;15.80;81.00;;;;;;5025868;28;20289;-92
2023/06/26 11:40:49;;;;;;;1.35;0.85;;;15.80;82.80;;;;;;5023863;28;20197;-93
2023/06/26 11:43:25;;;;;;;2.15;0.95;;;15.80;82.70;;;;;;5029100;28;20193;-93
2023/06/26 11:45:58;;;;;;;2.47;1.00;;;15.70;81.10;;;;;;5026691;28;20205;-92
2023/06/26 11:48:30;;;;;;;1.58;0.80;;;15.60;81.00;;;;;;5019685;28;20237;-93
2023/06/26 11:51:00;;;;;;;3.15;0.80;;;15.60;82.10;;;;;;5019206;28;20229;-93
2023/06/26 11:53:32;;;;;;;2.13;0.88;;;15.60;84.20;;;;;;5019025;28;20194;-93
2023/06/26 11:56:11;;;;;;;1.30;0.70;;;15.70;84.90;;;;;;5024645;28;20205;-93
2023/06/26 11:59:03;;;;;;;1.58;0.80;;;15.60;85.30;;;;;;5036752;28;20182;-92
2023/06/26 12:01:40;;;;;;;3.78;0.90;;;15.70;86.10;;;;;;5010733;28;20706;-93
2023/06/26 12:04:16;;;;;;;1.55;0.60;;;15.70;85.20;;;;;;5000686;28;20206;-92
2023/06/26 12:06:48;;;;;;;1.10;0.70;;;15.70;86.30;;;;;;5000246;28;20229;-92
2023/06/26 12:09:22;;;;;;;1.73;0.90;;;15.60;87.10;;;;;;4999021;28;20207;-92
2023/06/26 12:11:55;;;;;;;2.45;1.00;;;15.50;88.10;;;;;;5019922;28;20206;-93
2023/06/26 12:14:31;;;;;;;2.15;1.08;;;15.40;90.10;;;;;;5022395;28;20661;-92
2023/06/26 12:17:10;;;;;;;3.28;0.90;;;15.30;90.40;;;;;;5031956;28;20224;-93
2023/06/26 12:19:44;;;;;;;1.70;0.93;;;15.30;91.10;;;;;;5017919;28;20198;-94
2023/06/26 12:22:15;;;;;;;2.65;1.05;;;15.20;92.40;;;;;;5018229;28;20244;-94
2023/06/26 12:24:49;;;;;;;1.90;0.90;;;15.20;92.80;;;;;;5012862;28;20561;-93
2023/06/26 12:27:23;;;;;;;3.95;0.98;;;15.20;93.80;;;;;;5001347;28;20222;-93
2023/06/26 12:29:59;;;;;;;1.48;0.80;;;15.20;94.30;;;;;;4996665;28;20689;-92
2023/06/26 12:32:30;;;;;;;1.92;0.80;;;15.20;94.50;;;;;;4997373;28;20202;-93
2023/06/26 12:35:02;;;;;;;3.13;1.10;;;15.20;95.10;;;;;;5015789;28;20202;-92
2023/06/26 12:37:40;;;;;;;2.03;0.90;;;15.20;95.40;;;;;;5021015;28;20236;-93
2023/06/26 12:40:25;;;;;;;1.40;0.90;;;15.10;95.40;;;;;;5017890;28;20240;-92
2023/06/26 12:42:57;;;;;;;3.88;1.38;;;15.10;96.40;;;;;;5017594;28;20206;-92
2023/06/26 12:45:40;;;;;;;3.35;1.20;;;15.10;96.50;;;;;;5019940;28;20202;-92
2023/06/26 12:48:16;;;;;;;2.67;0.95;;;15.00;96.90;;;;;;5018194;28;20704;-91
2023/06/26 12:50:53;;;;;;;2.60;1.02;;;15.00;97.30;;;;;;5017953;28;20213;-91
2023/06/26 12:53:24;;;;;;;2.20;1.10;;;14.90;97.80;;;;;;5016819;28;20574;-92
2023/06/26 12:55:57;;;;;;;2.42;1.10;;;14.90;98.80;;;;;;5016846;28;20624;-92
2023/06/26 12:58:29;;;;;;;3.17;1.00;;;14.90;99.20;;;;;;5017098;28;20197;-92
2023/06/26 13:01:04;;;;;;;2.28;1.15;;;14.80;99.90;;;;;;5016476;28;20678;-92
2023/06/26 13:03:37;;;;;;;3.35;0.98;;;14.80;99.90;;;;;;5016701;28;20197;-92
2023/06/26 13:06:10;;;;;;;2.13;1.02;;;14.80;99.90;;;;;;5014242;28;20198;-92
2023/06/26 13:08:43;;;;;;;1.60;0.90;;;14.80;99.90;;;;;;5017293;28;20723;-92
2023/06/26 13:11:16;;;;;;;1.83;0.75;;;14.80;99.90;;;;;;5014428;28;20201;-92
2023/06/26 13:13:47;;;;;;;3.67;1.10;;;14.80;99.90;;;;;;5017064;28;20208;-92
2023/06/26 13:16:23;;;;;;;2.10;0.93;;;14.70;99.90;;;;;;5001442;28;20205;-92
2023/06/26 13:18:55;;;;;;;2.22;1.10;;;14.70;99.90;;;;;;5016743;28;20191;-92
2023/06/26 13:21:27;;;;;;;3.33;0.75;;;14.70;99.90;;;;;;5018262;28;20175;-92
2023/06/26 13:23:59;;;;;;;5.68;1.10;;;14.60;98.30;;;;;;5035077;28;20244;-87